Time;durP1;ratioP1;P1;durP2;ratioP2;P2;SDS_P1;SDS_P2;PMS_P1;PMS_P2;Temp;Humidity;BMP_temperature;BMP_pressure;BME280_temperature;BME280_humidity;BME280_pressure;Samples;Min_cycle;Max_cycle;Signal;HPM_P1;HPM_P2
2022/02/01 00:01:53;;;;;;;43.70;17.02;;;;;;;-1.50;100.00;97193.81;5045902;28;20042;-63
2022/02/01 00:04:34;;;;;;;47.13;17.85;;;;;;;-1.53;100.00;97186.13;5029790;28;20115;-63
2022/02/01 00:15:05;;;;;;;36.20;15.00;;;;;;;-1.43;100.00;97198.53;5029625;28;20068;-62
2022/02/01 00:33:04;;;;;;;41.33;16.83;;;;;;;-1.35;100.00;97202.19;5029186;28;20049;-63
2022/02/01 00:34:08;;;;;;;44.85;18.73;;;;;;;-1.56;100.00;97209.41;5031410;28;20600;-62
2022/02/01 00:36:42;;;;;;;44.97;17.63;;;;;;;-1.61;100.00;97203.66;5029078;28;20049;-62
2022/02/01 00:39:13;;;;;;;53.28;20.35;;;;;;;-1.60;100.00;97208.00;5028947;28;20121;-63
2022/02/01 00:41:47;;;;;;;50.45;20.60;;;;;;;-1.63;100.00;97200.31;5030742;28;20140;-63
2022/02/01 00:44:14;;;;;;;44.00;18.33;;;;;;;-1.65;100.00;97200.44;5013551;28;20125;-63
2022/02/01 00:46:39;;;;;;;48.60;19.33;;;;;;;-1.73;100.00;97201.13;5012957;28;20097;-63
2022/02/01 00:49:05;;;;;;;49.97;19.48;;;;;;;-1.74;100.00;97201.28;5030609;28;20045;-62
2022/02/01 00:51:31;;;;;;;48.40;18.48;;;;;;;-1.73;100.00;97203.78;5028903;28;20057;-61
2022/02/01 00:53:57;;;;;;;48.40;20.45;;;;;;;-1.78;100.00;97221.06;5045666;28;20038;-63
2022/02/01 00:56:24;;;;;;;49.70;20.13;;;;;;;-1.78;100.00;97221.88;5028801;28;20381;-62
2022/02/01 00:58:50;;;;;;;54.97;20.67;;;;;;;-1.79;100.00;97211.41;5028492;28;20033;-63
2022/02/01 01:01:16;;;;;;;49.47;20.15;;;;;;;-1.79;100.00;97206.13;5028697;28;20480;-62
2022/02/01 01:03:44;;;;;;;50.22;19.08;;;;;;;-1.79;100.00;97201.69;5012435;28;20041;-62
2022/02/01 01:06:10;;;;;;;53.65;19.23;;;;;;;-1.81;100.00;97206.25;5028560;28;20080;-62
2022/02/01 01:08:36;;;;;;;58.15;22.15;;;;;;;-1.82;100.00;97204.59;5028446;28;20049;-63
2022/02/01 01:11:03;;;;;;;51.08;20.52;;;;;;;-1.94;100.00;97200.34;5045346;28;20061;-61
2022/02/01 01:53:08;;;;;;;58.72;23.98;;;;;;;-1.96;100.00;97226.97;5033519;28;20090;-63
2022/02/01 01:54:13;;;;;;;59.47;22.75;;;;;;;-1.93;100.00;97217.09;5031384;28;20527;-60
2022/02/01 01:56:39;;;;;;;61.72;23.35;;;;;;;-1.96;100.00;97228.78;5031928;28;20053;-62
2022/02/01 01:59:07;;;;;;;58.28;22.92;;;;;;;-1.97;100.00;97229.75;4999172;28;20042;-62
2022/02/01 02:01:34;;;;;;;58.83;22.17;;;;;;;-2.02;100.00;97222.19;4998710;28;20462;-62
2022/02/01 02:04:02;;;;;;;64.85;24.17;;;;;;;-2.15;100.00;97212.81;5048389;28;20073;-63
2022/02/01 02:06:31;;;;;;;61.72;23.73;;;;;;;-2.01;100.00;97239.78;5031725;28;20099;-63
2022/02/01 02:08:58;;;;;;;63.25;23.75;;;;;;;-2.00;100.00;97240.63;4999186;28;20041;-62
2022/02/01 02:17:01;;;;;;;62.95;23.92;;;;;;;-2.13;100.00;97226.75;5017953;28;20425;-63
2022/02/01 02:19:29;;;;;;;72.97;25.63;;;;;;;-2.02;100.00;97250.47;5032874;28;20173;-62
2022/02/01 02:21:57;;;;;;;60.60;23.33;;;;;;;-2.06;100.00;97249.91;5015332;28;20042;-60
2022/02/01 02:24:29;;;;;;;66.05;24.60;;;;;;;-2.02;100.00;97250.47;5032810;28;20045;-63
2022/02/01 02:26:56;;;;;;;63.03;24.20;;;;;;;-1.97;100.00;97258.88;5017212;28;20082;-63
2022/02/01 02:29:22;;;;;;;65.38;24.05;;;;;;;-1.98;100.00;97255.38;5031970;28;20452;-62
2022/02/01 02:31:48;;;;;;;73.57;26.33;;;;;;;-1.99;100.00;97256.34;5031718;28;20059;-61
2022/02/01 02:34:15;;;;;;;70.60;24.45;;;;;;;-1.96;100.00;97257.91;5031294;28;20349;-63
2022/02/01 02:36:54;;;;;;;62.15;23.63;;;;;;;-1.95;100.00;97262.22;5031457;28;20045;-63
2022/02/01 02:39:28;;;;;;;61.80;22.02;;;;;;;-1.94;100.00;97263.88;5015184;28;20099;-63
2022/02/01 02:42:10;;;;;;;65.60;22.33;;;;;;;-1.95;100.00;97256.94;5030373;28;20049;-62
2022/02/01 02:47:23;;;;;;;45.13;19.00;;;;;;;-2.12;100.00;97217.84;5001657;28;20147;-63
2022/02/01 02:49:48;;;;;;;47.03;20.00;;;;;;;-1.94;100.00;97253.31;5015134;28;20073;-63
2022/02/01 02:52:15;;;;;;;46.75;18.88;;;;;;;-1.89;100.00;97263.50;5031513;28;20047;-63
2022/02/01 02:54:41;;;;;;;42.92;18.15;;;;;;;-1.89;100.00;97267.00;5030835;28;20057;-63
2022/02/01 02:57:10;;;;;;;44.88;17.40;;;;;;;-1.92;100.00;97267.25;5030776;28;20425;-62
2022/02/01 02:59:37;;;;;;;44.47;17.42;;;;;;;-1.90;100.00;97275.91;5030736;28;20050;-62
2022/02/01 03:02:04;;;;;;;40.17;16.85;;;;;;;-1.96;100.00;97265.84;5032416;28;20045;-62
2022/02/01 03:04:32;;;;;;;42.97;17.25;;;;;;;-1.92;100.00;97272.56;5013986;28;20048;-63
2022/02/01 03:06:58;;;;;;;43.42;17.20;;;;;;;-2.02;100.00;97283.09;5014182;28;20468;-62
2022/02/01 03:09:25;;;;;;;36.97;15.55;;;;;;;-2.14;100.00;97256.84;5014138;28;20049;-61
2022/02/01 03:11:53;;;;;;;41.40;15.93;;;;;;;-2.07;100.00;97285.28;5032023;28;20136;-62
2022/02/01 03:14:41;;;;;;;41.55;15.40;;;;;;;-2.08;100.00;97288.91;5014181;28;20536;-63
2022/02/01 03:19:47;;;;;;;46.60;16.80;;;;;;;-2.10;100.00;97287.38;5030050;28;20069;-62
2022/02/01 03:20:13;;;;;;;27.85;11.43;;;;;;;-2.16;100.00;97290.53;5019590;28;20455;-64
2022/02/01 03:22:39;;;;;;;45.88;17.67;;;;;;;-2.20;100.00;97285.47;4998184;28;20056;-63
2022/02/01 03:25:07;;;;;;;53.53;18.05;;;;;;;-2.16;100.00;97290.53;5014338;28;20042;-62
2022/02/01 03:27:34;;;;;;;40.85;16.13;;;;;;;-2.18;100.00;97293.31;5031935;28;20408;-61
2022/02/01 03:30:00;;;;;;;45.40;17.63;;;;;;;-2.32;100.00;97286.53;4997228;28;20121;-62
2022/02/01 03:32:26;;;;;;;44.90;18.75;;;;;;;-2.17;100.00;97300.28;5031637;28;20210;-63
2022/02/01 03:34:52;;;;;;;42.28;17.27;;;;;;;-2.27;100.00;97299.38;5047044;28;20095;-63
2022/02/01 03:37:19;;;;;;;38.00;16.13;;;;;;;-2.23;100.00;97300.78;5030754;28;20060;-63
2022/02/01 03:39:45;;;;;;;40.42;17.00;;;;;;;-2.46;100.00;97276.28;5046573;28;20475;-64
2022/02/01 03:42:11;;;;;;;44.80;19.13;;;;;;;-2.31;100.00;97317.31;5030123;28;20053;-62
2022/02/01 03:44:39;;;;;;;41.97;17.88;;;;;;;-2.47;100.00;97301.06;5013696;28;20037;-64
2022/02/01 03:47:05;;;;;;;42.45;17.13;;;;;;;-2.39;100.00;97330.34;5046500;28;20485;-64
2022/02/01 03:49:33;;;;;;;44.47;17.50;;;;;;;-2.45;100.00;97320.25;5013366;28;20128;-63
2022/02/01 03:52:00;;;;;;;50.08;17.70;;;;;;;-2.44;100.00;97335.19;5029316;28;20068;-63
2022/02/01 03:54:27;;;;;;;39.67;16.67;;;;;;;-2.42;100.00;97333.25;5029012;28;20045;-62
2022/02/01 03:56:53;;;;;;;37.53;15.45;;;;;;;-2.45;100.00;97338.78;5013341;28;20060;-63
2022/02/01 03:59:21;;;;;;;41.10;16.38;;;;;;;-2.40;100.00;97349.84;5013022;28;20037;-62
2022/02/01 04:01:47;;;;;;;44.40;18.90;;;;;;;-2.43;100.00;97347.44;5031163;28;20119;-64
2022/02/01 04:04:13;;;;;;;41.97;15.98;;;;;;;-2.41;100.00;97356.09;5013976;28;20477;-63
2022/02/01 04:06:39;;;;;;;43.58;16.98;;;;;;;-2.39;100.00;97364.72;4997307;28;20159;-62
2022/02/01 04:09:05;;;;;;;43.13;15.70;;;;;;;-2.43;100.00;97363.31;5030011;28;20136;-63
2022/02/01 04:11:31;;;;;;;39.85;16.73;;;;;;;-2.42;100.00;97370.28;5031186;28;20516;-63
2022/02/01 04:13:56;;;;;;;38.97;15.70;;;;;;;-2.54;100.00;97334.25;5029144;28;20097;-62
2022/02/01 04:16:22;;;;;;;37.53;15.73;;;;;;;-2.43;100.00;97364.16;4996594;28;20481;-63
2022/02/01 04:18:48;;;;;;;43.10;17.25;;;;;;;-2.48;100.00;97365.50;5029051;28;20044;-63
2022/02/01 04:21:14;;;;;;;35.53;14.13;;;;;;;-2.48;100.00;97349.63;5028992;28;20056;-63
2022/02/01 04:23:40;;;;;;;39.70;15.20;;;;;;;-2.52;100.00;97354.34;4996293;28;20037;-63
2022/02/01 04:26:05;;;;;;;38.03;16.08;;;;;;;-2.55;100.00;97369.63;5029777;28;20037;-63
2022/02/01 04:28:31;;;;;;;35.15;14.88;;;;;;;-2.68;100.00;97359.19;5029859;28;20407;-63
2022/02/01 04:30:57;;;;;;;43.08;14.50;;;;;;;-2.65;100.00;97363.41;5029259;28;20056;-63
2022/02/01 04:33:23;;;;;;;34.28;13.95;;;;;;;-2.78;100.00;97361.78;5012537;28;20053;-63
2022/02/01 04:35:49;;;;;;;39.65;15.70;;;;;;;-2.79;100.00;97373.28;5012193;28;20098;-63
2022/02/01 04:38:14;;;;;;;40.08;13.95;;;;;;;-2.86;100.00;97372.09;5012771;28;20450;-62
2022/02/01 04:40:40;;;;;;;44.40;15.52;;;;;;;-2.90;100.00;97383.88;4996255;28;20045;-63
2022/02/01 04:43:07;;;;;;;33.58;15.00;;;;;;;-2.92;100.00;97388.47;5029044;28;20481;-64
2022/02/01 04:45:33;;;;;;;34.72;14.55;;;;;;;-2.95;100.00;97386.06;5012510;28;20140;-63
2022/02/01 04:47:59;;;;;;;31.15;12.50;;;;;;;-3.00;100.00;97385.59;5028930;28;20161;-64
2022/02/01 04:50:27;;;;;;;36.08;13.85;;;;;;;-3.15;100.00;97372.63;4980121;28;20041;-64
2022/02/01 04:52:54;;;;;;;43.83;16.17;;;;;;;-3.17;100.00;97390.41;5030296;28;20056;-63
2022/02/01 04:55:22;;;;;;;37.35;14.18;;;;;;;-3.18;100.00;97399.31;5030175;28;20469;-63
2022/02/01 04:57:54;;;;;;;38.88;14.98;;;;;;;-3.16;100.00;97397.38;5028624;28;20045;-63
2022/02/01 05:00:25;;;;;;;37.45;15.13;;;;;;;-3.13;100.00;97401.59;5012383;28;20492;-63
2022/02/01 05:02:53;;;;;;;42.35;15.80;;;;;;;-3.10;100.00;97413.72;5012424;28;20502;-63
2022/02/01 05:05:24;;;;;;;40.88;17.33;;;;;;;-3.08;100.00;97414.44;5013436;28;20506;-64
2022/02/01 05:07:50;;;;;;;41.05;15.65;;;;;;;-3.07;100.00;97421.38;5035375;28;20053;-63
2022/02/01 05:10:16;;;;;;;42.78;16.77;;;;;;;-3.06;100.00;97417.81;5035316;28;20060;-64
2022/02/01 05:12:41;;;;;;;39.17;15.82;;;;;;;-2.93;100.00;97440.47;5036852;28;20053;-64
2022/02/01 05:15:08;;;;;;;33.90;15.57;;;;;;;-2.96;100.00;97445.19;5035028;28;20060;-64
2022/02/01 05:17:37;;;;;;;35.97;14.43;;;;;;;-2.89;100.00;97437.59;5035012;28;20053;-64
2022/02/01 05:20:17;;;;;;;37.05;16.80;;;;;;;-2.93;100.00;97437.81;5017220;28;20049;-63
2022/02/01 05:22:45;;;;;;;31.92;12.95;;;;;;;-2.95;100.00;97436.28;5007079;28;20052;-61
2022/02/01 05:25:12;;;;;;;34.90;13.77;;;;;;;-2.93;100.00;97435.19;5023117;28;20718;-65
2022/02/01 05:27:39;;;;;;;39.90;15.25;;;;;;;-2.96;100.00;97447.84;5048445;28;20373;-65
2022/02/01 05:30:05;;;;;;;38.00;15.32;;;;;;;-3.00;100.00;97446.38;5014821;28;20142;-65
2022/02/01 05:32:31;;;;;;;33.92;14.85;;;;;;;-2.99;100.00;97442.78;5031608;28;20563;-65
2022/02/01 05:34:57;;;;;;;34.78;12.98;;;;;;;-2.95;100.00;97446.88;4985956;28;20042;-66
2022/02/01 05:37:23;;;;;;;37.10;14.00;;;;;;;-2.96;100.00;97453.97;4983707;28;20103;-68
2022/02/01 05:39:49;;;;;;;37.67;16.70;;;;;;;-3.20;100.00;97442.66;5022321;28;20045;-63
2022/02/01 05:42:20;;;;;;;37.10;16.40;;;;;;;-3.03;100.00;97476.53;4999547;28;20045;-64
2022/02/01 05:44:46;;;;;;;33.20;13.95;;;;;;;-2.96;100.00;97471.63;4997538;28;20132;-66
2022/02/01 05:47:13;;;;;;;37.58;14.77;;;;;;;-3.01;100.00;97465.84;5008904;28;20135;-66
2022/02/01 05:49:40;;;;;;;33.15;12.30;;;;;;;-2.92;100.00;97473.06;5010157;28;20045;-65
2022/02/01 05:52:06;;;;;;;33.85;13.93;;;;;;;-2.90;100.00;97471.13;4994287;28;20144;-65
2022/02/01 05:54:32;;;;;;;36.80;13.20;;;;;;;-2.91;100.00;97469.44;5016262;28;20140;-65
2022/02/01 05:56:58;;;;;;;37.90;15.35;;;;;;;-2.87;100.00;97476.16;5013538;28;20056;-65
2022/02/01 05:59:24;;;;;;;35.25;15.77;;;;;;;-3.03;100.00;97454.56;5000279;28;20053;-65
2022/02/01 06:01:50;;;;;;;37.10;13.50;;;;;;;-2.86;100.00;97477.84;5007072;28;20042;-64
2022/02/01 06:04:16;;;;;;;38.13;15.10;;;;;;;-2.84;100.00;97485.66;5007123;28;20477;-64
2022/02/01 06:06:42;;;;;;;34.22;12.68;;;;;;;-2.95;100.00;97473.28;5014425;28;20068;-65
2022/02/01 06:09:08;;;;;;;36.85;15.52;;;;;;;-2.93;100.00;97489.84;5030443;28;20045;-64
2022/02/01 06:11:33;;;;;;;40.10;14.50;;;;;;;-2.95;100.00;97489.16;5032626;28;20194;-64
2022/02/01 06:13:59;;;;;;;33.13;13.23;;;;;;;-2.83;100.00;97498.75;5025956;28;20487;-65
2022/02/01 06:16:25;;;;;;;38.47;14.48;;;;;;;-2.87;100.00;97492.03;5048129;28;20450;-66
2022/02/01 06:18:51;;;;;;;36.70;14.40;;;;;;;-2.84;100.00;97502.38;5028541;28;20045;-64
2022/02/01 06:21:17;;;;;;;35.33;14.32;;;;;;;-2.87;100.00;97497.31;5011751;28;20041;-64
2022/02/01 06:23:42;;;;;;;43.80;15.63;;;;;;;-2.82;100.00;97505.72;5049183;28;20041;-64
2022/02/01 06:26:08;;;;;;;36.05;14.95;;;;;;;-2.76;100.00;97517.63;4998020;28;20101;-64
2022/02/01 06:28:34;;;;;;;38.30;14.30;;;;;;;-2.72;100.00;97522.53;5014056;28;20224;-64
2022/02/01 06:31:00;;;;;;;37.72;16.48;;;;;;;-2.76;100.00;97521.09;5031515;28;20370;-64
2022/02/01 06:33:26;;;;;;;42.15;16.80;;;;;;;-2.73;100.00;97526.16;5032262;28;20413;-64
2022/02/01 06:35:52;;;;;;;39.90;15.65;;;;;;;-2.72;100.00;97527.00;5007392;28;20060;-64
2022/02/01 06:38:18;;;;;;;44.42;19.15;;;;;;;-2.78;100.00;97525.69;5044907;28;20057;-64
2022/02/01 06:40:46;;;;;;;44.20;19.13;;;;;;;-2.79;100.00;97526.63;5006312;28;20050;-64
2022/02/01 06:43:12;;;;;;;42.53;17.23;;;;;;;-2.73;100.00;97530.59;5027332;28;20100;-64
2022/02/01 06:45:38;;;;;;;41.05;15.50;;;;;;;-2.65;100.00;97537.94;4998814;28;20507;-64
2022/02/01 06:48:04;;;;;;;43.35;16.63;;;;;;;-2.65;100.00;97532.66;5014335;28;20136;-64
2022/02/01 06:50:30;;;;;;;47.75;17.15;;;;;;;-2.55;100.00;97536.25;4994667;28;20053;-64
2022/02/01 06:52:58;;;;;;;43.90;17.13;;;;;;;-2.48;100.00;97551.50;5029912;28;20128;-64
2022/02/01 06:55:34;;;;;;;47.33;16.75;;;;;;;-2.41;100.00;97541.28;5035473;28;20158;-64
2022/02/01 06:58:01;;;;;;;49.05;18.25;;;;;;;-2.44;100.00;97547.66;5033269;28;20069;-64
2022/02/01 07:00:27;;;;;;;41.90;16.90;;;;;;;-2.34;100.00;97547.78;5013307;28;20052;-64
2022/02/01 07:02:53;;;;;;;45.08;17.48;;;;;;;-2.39;100.00;97534.06;4978785;28;20053;-65
2022/02/01 07:05:19;;;;;;;43.00;16.35;;;;;;;-2.28;100.00;97557.84;5011801;28;20040;-64
2022/02/01 07:07:45;;;;;;;53.72;22.17;;;;;;;-2.31;100.00;97558.09;5014329;28;20045;-64
2022/02/01 07:10:11;;;;;;;53.75;18.40;;;;;;;-2.45;100.00;97518.66;5020854;28;20478;-64
2022/02/01 07:12:37;;;;;;;44.85;16.70;;;;;;;-2.14;100.00;97558.56;5011601;28;20559;-64
2022/02/01 07:15:04;;;;;;;53.80;18.38;;;;;;;-2.17;100.00;97564.09;5011705;28;20099;-64
2022/02/01 07:17:29;;;;;;;43.40;17.42;;;;;;;-2.11;100.00;97568.91;5011645;28;20484;-64
2022/02/01 07:19:55;;;;;;;47.95;17.92;;;;;;;-2.19;100.00;97558.94;5010472;28;20091;-65
2022/02/01 07:22:21;;;;;;;48.78;17.58;;;;;;;-2.02;100.00;97574.28;5008714;28;20496;-63
2022/02/01 07:25:13;;;;;;;44.10;16.42;;;;;;;-2.02;100.00;97573.44;5011670;28;20400;-64
2022/02/01 07:27:40;;;;;;;45.15;18.15;;;;;;;-1.93;100.00;97578.00;5010645;28;20489;-64
2022/02/01 07:30:13;;;;;;;42.53;16.98;;;;;;;-1.88;100.00;97575.81;5012580;28;20076;-65
2022/02/01 07:32:40;;;;;;;44.80;17.10;;;;;;;-1.87;100.00;97561.59;5039555;28;20389;-64
2022/02/01 07:35:06;;;;;;;51.40;19.30;;;;;;;-1.96;100.00;97562.34;4987314;28;20049;-64
2022/02/01 07:37:32;;;;;;;46.45;17.02;;;;;;;-1.92;100.00;97561.13;5011573;28;20056;-64
2022/02/01 07:40:02;;;;;;;48.63;17.95;;;;;;;-1.80;100.00;97583.97;5014072;28;20049;-64
2022/02/01 07:42:29;;;;;;;42.28;17.08;;;;;;;-1.81;100.00;97587.59;5036831;28;20422;-64
2022/02/01 07:45:00;;;;;;;47.03;17.10;;;;;;;-1.85;100.00;97580.84;5028826;28;20041;-71
2022/02/01 07:47:25;;;;;;;45.30;17.33;;;;;;;-1.81;100.00;97586.75;5009919;28;20160;-65
2022/02/01 07:49:51;;;;;;;49.38;18.25;;;;;;;-1.73;100.00;97585.16;5028870;28;20052;-64
2022/02/01 07:52:18;;;;;;;44.78;18.50;;;;;;;-1.80;100.00;97594.56;4999368;28;20097;-64
2022/02/01 07:54:45;;;;;;;38.63;15.20;;;;;;;-1.75;100.00;97592.38;5011547;28;20125;-64
2022/02/01 07:57:11;;;;;;;40.10;15.73;;;;;;;-1.73;100.00;97598.38;5011498;28;20532;-64
2022/02/01 07:59:37;;;;;;;48.00;16.65;;;;;;;-1.71;100.00;97593.81;5022982;28;20133;-64
2022/02/01 08:02:04;;;;;;;43.30;15.15;;;;;;;-1.52;100.00;97602.91;5028303;28;20137;-64
2022/02/01 08:04:34;;;;;;;42.58;15.73;;;;;;;-1.53;100.00;97606.53;5026326;28;20045;-63
2022/02/01 08:07:01;;;;;;;36.60;14.57;;;;;;;-1.55;100.00;97608.44;4994713;28;20488;-64
2022/02/01 08:09:36;;;;;;;39.13;15.15;;;;;;;-1.86;100.00;97563.28;5008367;28;20046;-64
2022/02/01 08:12:11;;;;;;;43.30;15.70;;;;;;;-1.51;100.00;97601.94;5014820;28;20048;-64
2022/02/01 08:16:04;;;;;;;44.25;15.90;;;;;;;-1.35;99.39;97605.00;5007438;28;20059;-64
2022/02/01 08:20:13;;;;;;;42.05;16.55;;;;;;;-1.58;100.00;97614.00;5023537;28;20687;-64
2022/02/01 08:25:12;;;;;;;40.42;14.95;;;;;;;-1.59;100.00;97625.56;5014382;28;20042;-64
2022/02/01 08:27:39;;;;;;;41.90;15.68;;;;;;;-1.59;100.00;97625.56;5043670;28;20171;-65
2022/02/01 08:30:10;;;;;;;35.97;14.32;;;;;;;-1.59;100.00;97628.22;4995425;28;20397;-64
2022/02/01 08:32:37;;;;;;;40.28;14.07;;;;;;;-1.44;100.00;97621.66;5016915;28;20114;-64
2022/02/01 08:35:04;;;;;;;41.35;17.23;;;;;;;-1.59;100.00;97626.41;5011950;28;20054;-64
2022/02/01 08:37:30;;;;;;;40.38;16.35;;;;;;;-1.68;100.00;97629.81;5011382;28;20515;-65
2022/02/01 08:39:56;;;;;;;40.80;16.60;;;;;;;-1.64;100.00;97618.00;5010643;28;20045;-65
2022/02/01 08:42:22;;;;;;;35.65;14.15;;;;;;;-1.47;100.00;97617.44;4998979;28;20061;-64
2022/02/01 08:44:48;;;;;;;36.35;15.43;;;;;;;-1.25;99.46;97621.81;4991699;28;20486;-64
2022/02/01 08:47:14;;;;;;;43.00;18.08;;;;;;;-1.45;100.00;97619.97;5028267;28;20073;-64
2022/02/01 08:49:41;;;;;;;45.13;18.77;;;;;;;-1.44;100.00;97621.66;5036163;28;20115;-64
2022/02/01 08:52:11;;;;;;;40.03;16.08;;;;;;;-1.34;100.00;97622.59;4994503;28;20093;-64
2022/02/01 08:54:38;;;;;;;37.15;15.43;;;;;;;-1.45;100.00;97622.63;5024479;28;20046;-64
2022/02/01 08:57:25;;;;;;;43.85;19.90;;;;;;;-1.46;100.00;97626.25;5010866;28;20045;-66
2022/02/01 08:59:53;;;;;;;40.28;16.90;;;;;;;-1.45;100.00;97596.13;5020479;28;20037;-64
2022/02/01 09:02:22;;;;;;;34.90;13.93;;;;;;;-1.18;99.21;97598.28;5000857;28;20054;-66
2022/02/01 09:04:49;;;;;;;38.40;18.25;;;;;;;-1.37;98.74;97601.63;5024284;28;20052;-62
2022/02/01 09:07:15;;;;;;;31.48;12.55;;;;;;;-1.14;98.96;97606.81;5026911;28;20080;-65
2022/02/01 09:09:41;;;;;;;29.75;12.10;;;;;;;-1.00;98.11;97619.75;4983068;28;20045;-65
2022/02/01 09:12:07;;;;;;;28.85;11.32;;;;;;;-1.14;97.45;97562.59;5007371;28;20373;-65
2022/02/01 09:14:33;;;;;;;29.17;12.18;;;;;;;-0.86;95.64;97611.47;5000255;28;20049;-66
2022/02/01 09:17:01;;;;;;;31.98;14.88;;;;;;;-1.04;96.84;97607.75;5008397;28;20541;-67
2022/02/01 09:19:27;;;;;;;32.17;12.90;;;;;;;-0.87;95.55;97619.59;5029228;28;20033;-63
2022/02/01 09:21:54;;;;;;;34.90;13.07;;;;;;;-0.79;95.96;97614.47;4990446;28;20049;-66
2022/02/01 09:24:20;;;;;;;32.00;13.70;;;;;;;-0.88;97.08;97629.31;5023326;28;20556;-64
2022/02/01 09:26:46;;;;;;;33.88;15.73;;;;;;;-1.08;96.87;97617.75;5039382;28;20045;-63
2022/02/01 09:29:12;;;;;;;34.28;12.88;;;;;;;-1.46;96.58;97549.41;5023547;28;20053;-64
2022/02/01 09:31:38;;;;;;;29.50;13.32;;;;;;;-1.11;96.82;97627.78;5040244;28;20484;-64
2022/02/01 09:34:05;;;;;;;33.90;16.02;;;;;;;-1.27;97.82;97623.75;5007872;28;20037;-64
2022/02/01 09:36:31;;;;;;;33.88;13.43;;;;;;;-1.16;97.80;97629.97;5024773;28;20042;-65
2022/02/01 09:38:59;;;;;;;33.20;12.80;;;;;;;-1.00;96.69;97635.66;5004504;28;20168;-65
2022/02/01 09:41:26;;;;;;;32.40;14.27;;;;;;;-1.13;97.61;97635.88;4995495;28;20509;-70
2022/02/01 09:43:53;;;;;;;35.30;14.30;;;;;;;-1.28;97.71;97632.69;5007807;28;20111;-62
2022/02/01 09:46:20;;;;;;;28.83;12.23;;;;;;;-1.25;98.27;97637.72;5009565;28;20038;-62
2022/02/01 09:48:47;;;;;;;31.67;11.50;;;;;;;-1.40;99.19;97633.69;4993741;28;20067;-64
2022/02/01 09:51:13;;;;;;;33.95;13.65;;;;;;;-1.39;99.10;97635.38;4996463;28;20501;-62
2022/02/01 09:53:39;;;;;;;31.50;13.30;;;;;;;-1.35;99.23;97631.50;5013982;28;20151;-61
2022/02/01 09:56:06;;;;;;;32.33;12.93;;;;;;;-1.31;98.69;97640.06;5011823;28;20469;-63
2022/02/01 09:58:37;;;;;;;27.83;11.50;;;;;;;-1.28;98.68;97632.69;5017707;28;20042;-61
2022/02/01 10:01:24;;;;;;;24.50;11.75;;;;;;;-1.23;98.33;97630.47;5011773;28;20053;-63
2022/02/01 10:04:03;;;;;;;31.75;12.85;;;;;;;-1.22;98.12;97621.56;5012477;28;20405;-60
2022/02/01 10:06:33;;;;;;;27.98;12.63;;;;;;;-1.12;98.50;97620.81;5001541;28;20041;-62
2022/02/01 10:09:09;;;;;;;33.10;14.63;;;;;;;-1.04;97.62;97623.66;5008833;28;20042;-62
2022/02/01 10:11:37;;;;;;;30.58;11.77;;;;;;;-0.85;96.60;97629.06;5030552;28;20396;-62
2022/02/01 10:14:05;;;;;;;28.30;10.23;;;;;;;-0.22;94.35;97625.47;5017327;28;20153;-60
2022/02/01 10:16:33;;;;;;;27.75;10.50;;;;;;;0.33;91.05;97628.59;5015061;28;20058;-63
2022/02/01 10:19:07;;;;;;;24.77;10.77;;;;;;;0.46;88.89;97631.84;5013437;28;20244;-62
2022/02/01 10:21:33;;;;;;;24.83;9.98;;;;;;;0.62;87.94;97629.50;5024797;28;20527;-63
2022/02/01 10:24:06;;;;;;;24.52;9.85;;;;;;;0.30;87.22;97639.50;5011826;28;20073;-63
2022/02/01 10:26:35;;;;;;;24.42;10.65;;;;;;;-0.22;87.84;97612.22;5013012;28;20059;-63
2022/02/01 10:29:04;;;;;;;22.92;9.80;;;;;;;-0.26;89.92;97631.09;5012634;28;20046;-63
2022/02/01 10:31:45;;;;;;;29.17;10.55;;;;;;;-0.39;91.76;97629.63;4995437;28;20041;-63
2022/02/01 10:36:55;;;;;;;27.27;11.45;;;;;;;-0.56;93.58;97612.50;5012069;28;20381;-63
2022/02/01 10:39:33;;;;;;;25.23;12.43;;;;;;;-0.80;92.77;97600.38;5012914;28;20441;-61
2022/02/01 10:42:03;;;;;;;25.70;10.98;;;;;;;-0.61;94.21;97641.25;5011469;28;20627;-62
2022/02/01 10:44:46;;;;;;;20.38;10.27;;;;;;;-0.58;93.68;97633.84;4999200;28;20441;-63
2022/02/01 10:47:35;;;;;;;26.45;12.18;;;;;;;-0.67;94.00;97636.44;5017100;28;20095;-63
2022/02/01 10:50:11;;;;;;;27.83;14.10;;;;;;;-0.86;94.67;97632.69;5014795;28;20045;-62
2022/02/01 10:52:45;;;;;;;22.52;10.63;;;;;;;-0.75;94.49;97639.75;5013717;28;20385;-62
2022/02/01 10:55:13;;;;;;;23.65;10.27;;;;;;;-0.83;94.90;97632.44;5012821;28;20057;-63
2022/02/01 10:57:39;;;;;;;23.70;11.02;;;;;;;-0.80;95.95;97648.09;5013783;28;20537;-62
2022/02/01 11:00:11;;;;;;;20.92;9.27;;;;;;;-0.74;95.93;97647.56;5031837;28;20110;-62
2022/02/01 11:02:42;;;;;;;19.75;8.60;;;;;;;-0.73;96.18;97651.94;5026345;28;20127;-62
2022/02/01 11:05:13;;;;;;;20.88;9.77;;;;;;;-0.88;95.55;97658.50;5023926;28;20108;-63
2022/02/01 11:07:39;;;;;;;22.70;9.75;;;;;;;-0.80;95.02;97652.56;4997563;28;20045;-62
2022/02/01 11:10:09;;;;;;;18.50;8.80;;;;;;;-0.78;94.14;97654.09;4995233;28;20056;-62
2022/02/01 11:12:37;;;;;;;19.95;8.77;;;;;;;-0.85;93.14;97662.72;5011549;28;20455;-61
2022/02/01 11:15:04;;;;;;;16.52;7.68;;;;;;;-0.91;93.02;97658.78;5013083;28;20053;-63
2022/02/01 11:17:45;;;;;;;17.83;7.07;;;;;;;-0.79;91.97;97633.88;4996472;28;20440;-62
2022/02/01 11:20:12;;;;;;;15.95;7.15;;;;;;;-0.76;90.89;97660.13;5003960;28;20501;-63
2022/02/01 11:22:41;;;;;;;16.05;7.28;;;;;;;-0.62;90.29;97645.72;5012232;28;20049;-62
2022/02/01 11:25:20;;;;;;;16.42;7.03;;;;;;;-0.54;88.31;97660.97;5020299;28;20053;-64
2022/02/01 11:27:59;;;;;;;14.95;6.53;;;;;;;-0.63;88.99;97665.22;5007038;28;20064;-64
2022/02/01 11:30:50;;;;;;;16.10;6.75;;;;;;;0.04;86.65;97663.03;4986004;28;20049;-63
2022/02/01 11:33:16;;;;;;;14.93;6.78;;;;;;;1.29;78.66;97661.53;5010412;28;20041;-63
2022/02/01 11:35:42;;;;;;;15.35;7.28;;;;;;;0.74;78.68;97634.66;5017431;28;20053;-64
2022/02/01 11:38:18;;;;;;;18.40;7.97;;;;;;;0.33;83.48;97671.09;5010541;28;20034;-63
2022/02/01 11:40:46;;;;;;;17.17;8.15;;;;;;;-0.12;85.38;97661.72;5015627;28;20127;-63
2022/02/01 11:43:13;;;;;;;16.98;7.15;;;;;;;-0.36;88.23;97672.66;5042969;28;20181;-64
2022/02/01 11:45:40;;;;;;;16.73;7.20;;;;;;;-0.46;88.89;97671.78;5012883;28;20107;-64
2022/02/01 11:48:26;;;;;;;20.20;9.15;;;;;;;-0.81;89.83;97678.22;5012570;28;20072;-63
2022/02/01 11:50:56;;;;;;;15.07;7.53;;;;;;;-0.98;90.21;97666.41;5009116;28;20152;-63
2022/02/01 11:53:26;;;;;;;16.90;7.95;;;;;;;-1.03;90.41;97673.03;5007068;28;20053;-63
2022/02/01 11:55:53;;;;;;;17.75;7.28;;;;;;;-0.99;89.78;97679.78;5009179;28;20045;-63
2022/02/01 11:58:32;;;;;;;17.98;8.35;;;;;;;-1.23;90.57;97683.50;5027156;28;20156;-64
2022/02/01 12:01:00;;;;;;;19.63;8.57;;;;;;;-1.26;91.43;97682.91;5000631;28;20065;-64
2022/02/01 12:03:32;;;;;;;15.63;7.15;;;;;;;-1.33;91.40;97685.22;5023391;28;20057;-64
2022/02/01 12:06:07;;;;;;;15.18;6.03;;;;;;;-1.31;92.18;97678.00;5017418;28;20100;-64
2022/02/01 12:08:36;;;;;;;15.98;6.90;;;;;;;-1.20;91.89;97681.56;5018210;28;20516;-64
2022/02/01 12:11:07;;;;;;;18.42;7.45;;;;;;;-1.34;92.48;97667.63;5007900;28;20434;-64
2022/02/01 12:13:35;;;;;;;15.57;6.65;;;;;;;-1.41;92.55;97694.78;5036380;28;20452;-63
2022/02/01 12:16:03;;;;;;;17.42;7.57;;;;;;;-1.77;93.83;97657.88;5028915;28;20389;-63
2022/02/01 12:18:52;;;;;;;19.02;7.43;;;;;;;-1.67;94.82;97686.28;5025183;28;20059;-64
2022/02/01 12:21:30;;;;;;;20.58;9.63;;;;;;;-1.72;95.17;97708.69;5012377;28;20045;-64
2022/02/01 12:23:58;;;;;;;17.90;9.10;;;;;;;-1.77;95.52;97694.13;5009560;28;20050;-63
2022/02/01 12:26:32;;;;;;;17.33;7.30;;;;;;;-1.59;95.40;97713.00;5009353;28;20107;-63
2022/02/01 12:29:00;;;;;;;20.80;8.25;;;;;;;-1.59;95.26;97707.69;5028061;28;20057;-63
2022/02/01 12:31:31;;;;;;;25.45;10.38;;;;;;;-1.58;95.64;97712.00;5011744;28;20095;-65
2022/02/01 12:33:58;;;;;;;20.90;9.63;;;;;;;-1.61;95.77;97715.78;5028141;28;20045;-64
2022/02/01 12:36:28;;;;;;;18.70;7.43;;;;;;;-1.47;95.54;97717.28;5012785;28;20438;-62
2022/02/01 12:39:10;;;;;;;15.80;6.97;;;;;;;-1.43;94.80;97729.31;5034661;28;20049;-64